Time;durP1;ratioP1;P1;durP2;ratioP2;P2;SDS_P1;SDS_P2;PMS_P1;PMS_P2;Temp;Humidity;BMP_temperature;BMP_pressure;BME280_temperature;BME280_humidity;BME280_pressure;Samples;Min_cycle;Max_cycle;Signal;HPM_P1;HPM_P2
2022/01/27 00:05:28;;;;;;;;;;;;;;;7.79;100.00;99723.94;5079944;28;20379;-76
2022/01/27 00:08:20;;;;;;;;;;;;;;;7.58;100.00;99679.31;5079871;28;19928;-76
2022/01/27 00:11:08;;;;;;;;;;;;;;;7.72;100.00;99712.78;5096414;28;19924;-76
2022/01/27 00:13:43;;;;;;;;;;;;;;;7.70;100.00;99719.91;5096408;28;19935;-76
2022/01/27 00:18:39;;;;;;;;;;;;;;;7.77;100.00;99704.06;5097527;28;19973;-76
2022/01/27 00:21:06;;;;;;;;;;;;;;;7.91;100.00;99704.13;5097543;28;19969;-76
2022/01/27 00:23:34;;;;;;;;;;;;;;;8.05;100.00;99701.44;5096244;28;20309;-76
2022/01/27 00:26:02;;;;;;;;;;;;;;;7.90;100.00;99688.63;5087093;28;20023;-76
2022/01/27 00:28:30;;;;;;;;;;;;;;;8.04;100.00;99693.47;5076925;28;20026;-76
2022/01/27 00:30:57;;;;;;;;;;;;;;;8.05;100.00;99687.50;5059432;28;20253;-76
2022/01/27 00:33:23;;;;;;;;;;;;;;;8.12;100.00;99667.25;5059003;28;19974;-76
2022/01/27 00:35:51;;;;;;;;;;;;;;;8.02;100.00;99679.94;5059174;28;19974;-76
2022/01/27 00:38:18;;;;;;;;;;;;;;;8.01;100.00;99661.63;5076954;28;20501;-76
2022/01/27 00:40:45;;;;;;;;;;;;;;;8.07;100.00;99670.41;5076839;28;19960;-76
2022/01/27 00:43:12;;;;;;;;;;;;;;;8.16;100.00;99659.72;5076576;28;19947;-76
2022/01/27 00:45:39;;;;;;;;;;;;;;;8.01;100.00;99681.09;5058922;28;20001;-76
2022/01/27 00:48:06;;;;;;;;;;;;;;;8.03;100.00;99672.38;5058867;28;19929;-76
2022/01/27 00:50:35;;;;;;;;;;;;;;;8.02;100.00;99668.81;5075548;28;19977;-76
2022/01/27 00:53:05;;;;;;;;;;;;;;;7.89;100.00;99664.00;5075535;28;19928;-76
2022/01/27 00:55:38;;;;;;;;;;;;;;;8.02;100.00;99659.66;5075428;28;20031;-76
2022/01/27 01:00:41;;;;;;;;;;;;;;;7.98;100.00;99654.06;5074459;28;19931;-76
2022/01/27 01:03:23;;;;;;;;;;;;;;;8.00;100.00;99671.19;5058771;28;20375;-76
2022/01/27 01:16:46;;;;;;;;;;;;;;;7.99;100.00;99666.00;5058294;28;19970;-76
2022/01/27 01:32:57;;;;;;;;;;;;;;;8.22;100.00;99638.66;5037813;28;20478;-76
2022/01/27 01:35:29;;;;;;;;;;;;;;;8.30;100.00;99657.00;5055923;28;19982;-76
2022/01/27 01:37:56;;;;;;;;;;;;;;;8.29;100.00;99656.19;5055817;28;19929;-76
2022/01/27 01:40:24;;;;;;;;;;;;;;;8.36;100.00;99647.84;5055732;28;19925;-76
2022/01/27 01:42:51;;;;;;;;;;;;;;;8.36;100.00;99653.41;5055367;28;20012;-76
2022/01/27 01:45:19;;;;;;;;;;;;;;;8.48;100.00;99646.69;5055480;28;20039;-76
2022/01/27 01:47:46;;;;;;;;;;;;;;;8.45;100.00;99645.47;5054518;28;19979;-76
2022/01/27 01:50:14;;;;;;;;;;;;;;;8.54;100.00;99648.66;5055541;28;20396;-76
2022/01/27 01:52:43;;;;;;;;;;;;;;;8.60;100.00;99641.50;5055231;28;19925;-76
2022/01/27 01:55:10;;;;;;;;;;;;;;;8.63;100.00;99649.06;5054115;28;19929;-76
2022/01/27 01:57:37;;;;;;;;;;;;;;;8.67;100.00;99649.09;5054306;28;20277;-76
2022/01/27 02:00:05;;;;;;;;;;;;;;;8.62;100.00;99655.84;5055249;28;20020;-76
2022/01/27 02:02:37;;;;;;;;;;;;;;;8.67;100.00;99652.69;5086026;28;19925;-76
2022/01/27 02:05:06;;;;;;;;;;;;;;;8.76;100.00;99658.66;5055268;28;19924;-76
2022/01/27 02:07:45;;;;;;;;;;;;;;;8.76;100.00;99655.88;5037567;28;20058;-76
2022/01/27 02:18:08;;;;;;;;;;;;;;;8.77;100.00;99646.31;5053707;28;20348;-76
2022/01/27 02:20:37;;;;;;;;;;;;;;;8.73;100.00;99642.75;5053865;28;19933;-76
2022/01/27 02:23:08;;;;;;;;;;;;;;;8.80;100.00;99639.13;5053759;28;19925;-76
2022/01/27 02:25:36;;;;;;;;;;;;;;;8.83;100.00;99647.50;5065606;28;19977;-76
2022/01/27 02:28:03;;;;;;;;;;;;;;;8.77;100.00;99637.94;5077018;28;19924;-76
2022/01/27 02:30:30;;;;;;;;;;;;;;;8.85;100.00;99650.69;5093697;28;19928;-76
2022/01/27 02:32:59;;;;;;;;;;;;;;;8.82;100.00;99653.47;5094957;28;19924;-76
2022/01/27 02:35:27;;;;;;;;;;;;;;;8.84;100.00;99642.75;5094867;28;20323;-76
2022/01/27 02:37:54;;;;;;;;;;;;;;;8.79;100.00;99641.16;5093536;28;19934;-76
2022/01/27 02:40:24;;;;;;;;;;;;;;;8.72;100.00;99629.97;5076763;28;19924;-76
2022/01/27 02:42:51;;;;;;;;;;;;;;;8.83;100.00;99630.78;5093406;28;20337;-76
2022/01/27 02:45:26;;;;;;;;;;;;;;;8.83;100.00;99632.78;5093285;28;19963;-76
2022/01/27 02:47:54;;;;;;;;;;;;;;;8.96;100.00;99625.63;5093176;28;19924;-76
2022/01/27 02:50:21;;;;;;;;;;;;;;;8.87;100.00;99623.25;5094265;28;20010;-76
2022/01/27 02:52:48;;;;;;;;;;;;;;;8.97;100.00;99614.06;5094030;28;19931;-75
2022/01/27 02:55:15;;;;;;;;;;;;;;;8.95;100.00;99619.22;5093802;28;19930;-76
2022/01/27 02:57:42;;;;;;;;;;;;;;;8.93;100.00;99610.50;5094100;28;19955;-76
2022/01/27 03:00:09;;;;;;;;;;;;;;;9.07;100.00;99613.25;5094376;28;20007;-76
2022/01/27 03:02:38;;;;;;;;;;;;;;;9.00;100.00;99602.13;5093231;28;19943;-76
2022/01/27 03:05:05;;;;;;;;;;;;;;;9.12;100.00;99601.69;5093238;28;19924;-76
2022/01/27 03:07:32;;;;;;;;;;;;;;;9.12;100.00;99586.94;5076096;28;20018;-76
2022/01/27 03:09:59;;;;;;;;;;;;;;;9.07;100.00;99607.66;5093115;28;19971;-76
2022/01/27 03:12:28;;;;;;;;;;;;;;;9.23;100.00;99603.66;5109858;28;19981;-76
2022/01/27 03:14:55;;;;;;;;;;;;;;;9.16;100.00;99608.06;5094225;28;19924;-76
2022/01/27 03:17:22;;;;;;;;;;;;;;;9.24;100.00;99614.41;5094206;28;20258;-76
2022/01/27 03:19:51;;;;;;;;;;;;;;;9.16;100.00;99612.84;5093037;28;19924;-76
2022/01/27 03:22:18;;;;;;;;;;;;;;;9.16;100.00;99619.22;5093195;28;19959;-76
2022/01/27 03:24:45;;;;;;;;;;;;;;;9.25;100.00;99620.78;5059512;28;19931;-76
2022/01/27 03:27:18;;;;;;;;;;;;;;;9.26;100.00;99625.16;5073593;28;20018;-76
2022/01/27 03:29:46;;;;;;;;;;;;;;;9.32;100.00;99627.16;5073875;28;19925;-76
2022/01/27 03:32:13;;;;;;;;;;;;;;;9.32;100.00;99631.91;5072433;28;19924;-76
2022/01/27 03:34:40;;;;;;;;;;;;;;;9.38;100.00;99602.44;5073729;28;20395;-76
2022/01/27 03:37:07;;;;;;;;;;;;;;;9.41;100.00;99635.09;5056036;28;20289;-76
2022/01/27 03:39:39;;;;;;;;;;;;;;;9.34;100.00;99635.91;5072533;28;19925;-76
2022/01/27 03:42:07;;;;;;;;;;;;;;;9.43;100.00;99649.44;5073491;28;19925;-76
2022/01/27 03:44:34;;;;;;;;;;;;;;;9.41;100.00;99651.81;5055935;28;20026;-76
2022/01/27 03:47:02;;;;;;;;;;;;;;;9.39;100.00;99641.06;5072489;28;19936;-76
2022/01/27 03:49:31;;;;;;;;;;;;;;;9.45;100.00;99652.63;5073804;28;19925;-76
2022/01/27 03:51:59;;;;;;;;;;;;;;;9.43;100.00;99657.81;5072235;28;19930;-76
2022/01/27 03:54:26;;;;;;;;;;;;;;;9.42;100.00;99647.84;5073532;28;20119;-76
2022/01/27 03:56:53;;;;;;;;;;;;;;;9.35;100.00;99662.59;5073460;28;19925;-76
2022/01/27 03:59:20;;;;;;;;;;;;;;;9.44;100.00;99664.97;5072245;28;19924;-76
2022/01/27 04:01:47;;;;;;;;;;;;;;;9.39;100.00;99659.81;5055672;28;20033;-76
2022/01/27 04:04:14;;;;;;;;;;;;;;;9.44;100.00;99651.03;5055481;28;19932;-76
2022/01/27 04:06:41;;;;;;;;;;;;;;;9.42;100.00;99670.16;5072326;28;20007;-76
2022/01/27 04:09:09;;;;;;;;;;;;;;;9.57;100.00;99694.06;5055749;28;20423;-76
2022/01/27 04:11:38;;;;;;;;;;;;;;;9.61;100.00;99694.81;5072242;28;19935;-76
2022/01/27 04:14:05;;;;;;;;;;;;;;;9.64;100.00;99705.19;5072216;28;19928;-76
2022/01/27 04:16:32;;;;;;;;;;;;;;;9.64;100.00;99710.78;5073274;28;19925;-76
2022/01/27 04:18:59;;;;;;;;;;;;;;;9.64;100.00;99694.03;5073322;28;19925;-76
2022/01/27 04:21:27;;;;;;;;;;;;;;;9.65;100.00;99718.72;5073189;28;19925;-76
2022/01/27 04:23:54;;;;;;;;;;;;;;;9.74;100.00;99721.13;5073299;28;19924;-76
2022/01/27 04:26:30;;;;;;;;;;;;;;;9.79;100.00;99709.53;5084111;28;19960;-76
2022/01/27 04:28:57;;;;;;;;;;;;;;;9.78;100.00;99710.75;5092251;28;19946;-76
2022/01/27 04:31:26;;;;;;;;;;;;;;;9.84;100.00;99711.91;5092194;28;20023;-76
2022/01/27 04:33:53;;;;;;;;;;;;;;;9.92;100.00;99730.25;5095224;28;19924;-76
2022/01/27 04:36:28;;;;;;;;;;;;;;;9.93;100.00;99734.63;5097109;28;20310;-76
2022/01/27 04:42:08;;;;;;;;;;;;;;;10.03;100.00;99747.75;5078900;28;19946;-76
2022/01/27 04:44:31;;;;;;;;;;;;;;;9.98;100.00;99760.13;5093377;28;20028;-76
2022/01/27 04:47:07;;;;;;;;;;;;;;;10.07;100.00;99754.94;5079218;28;19924;-76
2022/01/27 04:49:35;;;;;;;;;;;;;;;9.99;100.00;99741.38;5095716;28;20563;-76
2022/01/27 04:52:03;;;;;;;;;;;;;;;9.97;100.00;99752.16;5096784;28;19924;-76
2022/01/27 04:54:40;;;;;;;;;;;;;;;10.06;100.00;99755.31;5097204;28;19924;-76
2022/01/27 04:57:08;;;;;;;;;;;;;;;9.97;100.00;99763.31;5079141;28;19925;-76
2022/01/27 04:59:40;;;;;;;;;;;;;;;10.04;100.00;99764.09;5079029;28;20322;-76
2022/01/27 05:02:16;;;;;;;;;;;;;;;9.99;100.00;99769.31;5097042;28;19932;-76
2022/01/27 05:04:47;;;;;;;;;;;;;;;9.93;100.00;99773.72;5078769;28;20331;-76
2022/01/27 05:07:14;;;;;;;;;;;;;;;9.95;100.00;99782.47;5095614;28;19924;-76
2022/01/27 05:09:51;;;;;;;;;;;;;;;9.70;100.00;99765.78;5078826;28;19924;-76
2022/01/27 05:12:38;;;;;;;;;;;;;;;9.76;100.00;99780.09;5095421;28;19925;-76
2022/01/27 05:15:06;;;;;;;;;;;;;;;9.68;100.00;99781.34;5095435;28;20371;-76
2022/01/27 05:17:33;;;;;;;;;;;;;;;9.69;100.00;99771.75;5096799;28;20343;-76
2022/01/27 05:20:00;;;;;;;;;;;;;;;9.84;100.00;99781.69;5080491;28;20409;-76
2022/01/27 05:22:27;;;;;;;;;;;;;;;9.76;100.00;99757.78;5078521;28;20439;-76
2022/01/27 05:24:54;;;;;;;;;;;;;;;9.86;100.00;99768.94;5076070;28;20026;-76
2022/01/27 05:27:21;;;;;;;;;;;;;;;9.74;100.00;99788.09;5074648;28;20466;-76
2022/01/27 05:29:48;;;;;;;;;;;;;;;9.71;100.00;99756.19;5096397;28;19930;-76
2022/01/27 05:32:15;;;;;;;;;;;;;;;9.74;100.00;99782.53;5096308;28;20413;-76
2022/01/27 05:34:42;;;;;;;;;;;;;;;9.82;100.00;99796.06;5095140;28;20375;-76
2022/01/27 05:37:09;;;;;;;;;;;;;;;9.89;100.00;99807.19;5095070;28;19932;-76
2022/01/27 05:39:38;;;;;;;;;;;;;;;9.82;100.00;99806.41;5060534;28;20058;-76
2022/01/27 05:42:06;;;;;;;;;;;;;;;9.83;100.00;99813.63;5075865;28;19959;-76
2022/01/27 05:44:34;;;;;;;;;;;;;;;9.84;100.00;99790.88;5075465;28;19931;-76
2022/01/27 05:47:01;;;;;;;;;;;;;;;9.92;100.00;99777.72;5075568;28;20027;-76
2022/01/27 05:49:28;;;;;;;;;;;;;;;9.88;100.00;99811.19;5075753;28;20432;-76
2022/01/27 05:51:55;;;;;;;;;;;;;;;9.75;100.00;99778.53;5058026;28;19931;-76
2022/01/27 05:54:22;;;;;;;;;;;;;;;9.90;100.00;99830.34;5075604;28;19928;-76
2022/01/27 05:56:50;;;;;;;;;;;;;;;9.87;100.00;99803.22;5074584;28;19924;-76
2022/01/27 05:59:17;;;;;;;;;;;;;;;9.84;100.00;99809.63;5074418;28;20431;-76
2022/01/27 06:01:44;;;;;;;;;;;;;;;9.87;100.00;99803.22;5074256;28;20364;-76
2022/01/27 06:04:11;;;;;;;;;;;;;;;9.83;100.00;99824.78;5075412;28;19924;-76
2022/01/27 06:06:38;;;;;;;;;;;;;;;9.89;100.00;99821.16;5075386;28;19928;-76
2022/01/27 06:09:05;;;;;;;;;;;;;;;9.92;100.00;99811.97;5075683;28;19925;-76
2022/01/27 06:11:32;;;;;;;;;;;;;;;9.81;100.00;99813.19;5075422;28;19931;-75
2022/01/27 06:13:59;;;;;;;;;;;;;;;9.82;100.00;99772.91;5075138;28;19925;-76
2022/01/27 06:16:26;;;;;;;;;;;;;;;9.90;100.00;99824.75;5094980;28;19990;-76
2022/01/27 06:18:53;;;;;;;;;;;;;;;9.86;100.00;99807.22;5077307;28;19947;-76
2022/01/27 06:21:20;;;;;;;;;;;;;;;9.72;100.00;99818.41;5094158;28;19924;-76
2022/01/27 06:23:48;;;;;;;;;;;;;;;9.67;100.00;99793.69;5095424;28;20020;-76
2022/01/27 06:26:15;;;;;;;;;;;;;;;9.67;100.00;99799.25;5094280;28;19939;-76
2022/01/27 06:28:42;;;;;;;;;;;;;;;9.65;100.00;99799.66;5083955;28;20298;-76
2022/01/27 06:31:09;;;;;;;;;;;;;;;9.68;100.00;99812.03;5076455;28;19925;-76
2022/01/27 06:33:37;;;;;;;;;;;;;;;9.58;100.00;99840.72;5074856;28;20022;-76
2022/01/27 06:36:04;;;;;;;;;;;;;;;9.52;100.00;99792.09;5090866;28;19924;-76
2022/01/27 06:38:31;;;;;;;;;;;;;;;9.70;100.00;99826.38;5093916;28;20011;-76
2022/01/27 06:40:58;;;;;;;;;;;;;;;9.65;100.00;99812.84;5077005;28;19928;-76
2022/01/27 06:43:26;;;;;;;;;;;;;;;9.66;100.00;99803.25;5076997;28;19956;-76
2022/01/27 06:45:53;;;;;;;;;;;;;;;9.58;100.00;99798.88;5076753;28;19924;-76
2022/01/27 06:48:20;;;;;;;;;;;;;;;9.43;100.00;99766.59;5094873;28;19924;-76
2022/01/27 06:50:53;;;;;;;;;;;;;;;9.44;100.00;99788.50;5093657;28;20332;-76
2022/01/27 06:53:20;;;;;;;;;;;;;;;9.38;100.00;99759.41;5093670;28;20023;-75
2022/01/27 06:55:48;;;;;;;;;;;;;;;9.36;100.00;99794.50;5060118;28;19931;-76
2022/01/27 06:58:15;;;;;;;;;;;;;;;9.40;100.00;99775.75;5092521;28;19924;-76
2022/01/27 07:00:42;;;;;;;;;;;;;;;9.27;100.00;99764.19;5094588;28;20274;-76
2022/01/27 07:03:09;;;;;;;;;;;;;;;9.24;100.00;99764.22;5093295;28;20009;-76
2022/01/27 07:05:37;;;;;;;;;;;;;;;9.19;100.00;99763.41;5087981;28;19929;-76
2022/01/27 07:08:04;;;;;;;;;;;;;;;9.14;100.00;99735.13;5073039;28;19931;-76
2022/01/27 07:10:34;;;;;;;;;;;;;;;9.22;100.00;99744.28;5040190;28;20031;-76
2022/01/27 07:13:01;;;;;;;;;;;;;;;9.31;100.00;99778.16;5056193;28;20463;-76
2022/01/27 07:15:29;;;;;;;;;;;;;;;9.26;100.00;99745.88;5055976;28;19929;-76
2022/01/27 07:17:56;;;;;;;;;;;;;;;9.13;100.00;99753.06;5072630;28;20271;-76
2022/01/27 07:20:24;;;;;;;;;;;;;;;9.21;100.00;99756.66;5056284;28;20521;-76
2022/01/27 07:22:50;;;;;;;;;;;;;;;9.15;100.00;99770.97;5073959;28;19930;-76
2022/01/27 07:25:17;;;;;;;;;;;;;;;9.05;100.00;99731.94;5055969;28;19924;-76
2022/01/27 07:27:44;;;;;;;;;;;;;;;9.09;100.00;99757.81;5072597;28;20012;-76
2022/01/27 07:30:11;;;;;;;;;;;;;;;9.10;100.00;99770.56;5073681;28;19924;-76
2022/01/27 07:32:38;;;;;;;;;;;;;;;9.04;100.00;99772.16;5073807;28;19928;-76
2022/01/27 07:35:05;;;;;;;;;;;;;;;8.95;100.00;99747.44;5072966;28;19967;-76
2022/01/27 07:37:33;;;;;;;;;;;;;;;9.01;100.00;99745.84;5072002;28;19938;-76
2022/01/27 07:43:41;;;;;;;;;;;;;;;8.96;100.00;99749.06;5074418;28;19938;-76
2022/01/27 07:46:11;;;;;;;;;;;;;;;8.92;100.00;99764.97;5069507;28;19971;-76
2022/01/27 07:48:42;;;;;;;;;;;;;;;8.95;100.00;99772.53;5069438;28;19931;-76
2022/01/27 07:51:10;;;;;;;;;;;;;;;8.87;100.00;99731.94;5072028;28;19924;-76
2022/01/27 07:53:38;;;;;;;;;;;;;;;8.87;100.00;99729.13;5072581;28;19964;-77
2022/01/27 07:56:19;;;;;;;11.18;3.55;;;;;;;8.79;100.00;99676.56;5066464;28;19960;-77
2022/01/27 07:58:47;;;;;;;6.00;2.20;;;;;;;8.51;100.00;99668.19;5068356;28;20052;-76
2022/01/27 08:01:15;;;;;;;17.20;3.17;;;;;;;8.90;100.00;99798.03;5052840;28;20041;-76
2022/01/27 08:03:42;;;;;;;14.00;2.80;;;;;;;8.85;100.00;99770.53;5051468;28;20536;-76
2022/01/27 08:06:10;;;;;;;;;;;;;;;8.87;100.00;99796.03;5069917;28;20641;-76
2022/01/27 08:08:37;;;;;;;16.10;3.15;;;;;;;8.73;100.00;99759.75;5075692;28;19982;-76
2022/01/27 08:11:05;;;;;;;13.05;2.65;;;;;;;8.75;100.00;99788.00;5075808;28;20522;-76
2022/01/27 08:13:32;;;;;;;;;;;;;;;8.85;100.00;99808.75;5060482;28;20033;-76
2022/01/27 08:16:01;;;;;;;13.63;3.25;;;;;;;8.84;100.00;99799.59;5088355;28;19920;-76
2022/01/27 08:18:46;;;;;;;;;;;;;;;8.82;100.00;99796.41;5039506;28;20083;-76
2022/01/27 08:21:13;;;;;;;;;;;;;;;8.80;100.00;99787.63;5068344;28;19928;-76
2022/01/27 08:23:42;;;;;;;;;;;;;;;8.77;100.00;99796.78;5076933;28;20336;-76
2022/01/27 08:26:12;;;;;;;;;;;;;;;8.78;100.00;99778.09;5075809;28;19925;-75
2022/01/27 08:31:06;;;;;;;;;;;;;;;8.75;100.00;99806.72;5076945;28;19920;-75
2022/01/27 08:33:38;;;;;;;;;;;;;;;9.05;100.00;99807.19;5076703;28;19921;-75
2022/01/27 08:36:05;;;;;;;;;;;;;;;8.96;100.00;99796.44;5075678;28;19921;-75
2022/01/27 08:38:32;;;;;;;11.38;2.10;;;;;;;8.59;100.00;99787.56;5076409;28;19920;-76
2022/01/27 08:41:00;;;;;;;7.90;1.55;;;;;;;8.54;100.00;99810.22;5075037;28;20154;-76
2022/01/27 08:43:27;;;;;;;;;;;;;;;8.53;100.00;99822.56;5076779;28;20036;-76
2022/01/27 08:45:55;;;;;;;;;;;;;;;8.57;100.00;99809.44;5108939;28;19927;-76
2022/01/27 08:48:22;;;;;;;;;;;;;;;8.52;100.00;99832.13;5075593;28;19920;-76
2022/01/27 08:50:58;;;;;;;;;;;;;;;8.51;100.00;99829.72;5075343;28;19973;-76
2022/01/27 08:53:43;;;;;;;;;;;;;;;8.46;100.00;99814.19;5076464;28;19921;-75
2022/01/27 08:56:13;;;;;;;;;;;;;;;8.59;100.00;99857.22;5076356;28;20027;-76
2022/01/27 08:58:40;;;;;;;;;;;;;;;8.43;100.00;99845.59;5052962;28;20015;-76
2022/01/27 09:01:07;;;;;;;;;;;;;;;8.41;100.00;99836.84;5084357;28;19942;-76
2022/01/27 09:03:35;;;;;;;;;;;;;;;8.51;100.00;99824.94;5094545;28;19927;-76
2022/01/27 09:06:02;;;;;;;;;;;;;;;8.45;100.00;99840.44;5076611;28;20460;-76
2022/01/27 09:08:29;;;;;;;;;;;;;;;8.54;100.00;99848.44;5071676;28;19924;-76
2022/01/27 09:10:56;;;;;;;;;;;;;;;8.51;100.00;99850.00;5055468;28;19920;-76
2022/01/27 09:13:24;;;;;;;;;;;;;;;8.54;100.00;99806.66;5070934;28;20267;-76
2022/01/27 09:15:51;;;;;;;;;;;;;;;8.54;100.00;99843.66;5074083;28;19920;-76
2022/01/27 09:18:18;;;;;;;;;;;;;;;8.52;100.00;99831.31;5109076;27;19988;-75
2022/01/27 09:20:46;;;;;;;;;;;;;;;8.58;100.00;99849.25;5074741;28;19995;-76
2022/01/27 09:23:14;;;;;;;;;;;;;;;8.67;100.00;99850.50;5078991;28;20024;-76
2022/01/27 09:25:44;;;;;;;;;;;;;;;8.67;100.00;99853.28;5095900;28;19927;-76
2022/01/27 09:28:12;;;;;;;;;;;;;;;8.62;100.00;99845.28;5096221;28;19920;-76
2022/01/27 09:30:41;;;;;;;;;;;;;;;8.64;100.00;99854.06;5094937;28;20011;-75
2022/01/27 09:33:09;;;;;;;;;;;;;;;8.66;100.00;99850.88;5064695;28;19924;-76
2022/01/27 09:35:36;;;;;;;;;;;;;;;8.62;100.00;99842.50;5094332;28;19921;-76
2022/01/27 09:38:03;;;;;;;;;;;;;;;8.67;100.00;99853.28;5076391;28;19974;-76
2022/01/27 09:40:30;;;;;;;;;;;;;;;8.56;100.00;99830.13;5057754;28;19927;-76
2022/01/27 09:42:59;;;;;;;;;;;;;;;8.80;100.00;99851.72;5091562;28;19920;-77
2022/01/27 09:45:28;;;;;;;;;;;;;;;8.77;100.00;99841.34;5074245;28;19920;-76
2022/01/27 09:48:01;;;;;;;;;;;;;;;8.78;100.00;99845.72;5118918;27;19965;-76
2022/01/27 09:53:11;;;;;;;;;;;;;;;8.81;100.00;99825.47;5091913;28;20551;-76
2022/01/27 09:55:38;;;;;;;;;;;;;;;8.99;100.00;99831.09;5057161;28;20474;-76
2022/01/27 09:58:06;;;;;;;;;;;;;;;8.96;100.00;99829.09;5076699;28;19946;-76
2022/01/27 10:00:34;;;;;;;;;;;;;;;8.99;100.00;99843.03;5074545;28;19974;-76
2022/01/27 10:03:01;;;;;;;;;;;;;;;8.84;100.00;99843.38;5078071;28;19966;-76
2022/01/27 10:05:29;;;;;;;;;;;;;;;8.89;100.00;99837.44;5095261;28;19920;-76
2022/01/27 10:08:05;;;;;;;;;;;;;;;8.96;100.00;99832.69;5094106;28;20022;-76
2022/01/27 10:10:37;;;;;;;;;;;;;;;8.77;100.00;99830.22;5093956;28;20019;-76
2022/01/27 10:13:07;;;;;;;;;;;;;;;8.78;100.00;99851.31;5091886;28;19920;-76
2022/01/27 10:15:40;;;;;;;;;;;;;;;8.95;100.00;99856.16;5074767;28;19920;-76
2022/01/27 10:18:09;;;;;;;;;;;;;;;8.84;100.00;99816.31;5072636;28;19920;-76
2022/01/27 10:20:39;;;;;;;;;;;;;;;8.93;100.00;99863.31;5073560;28;19951;-76
2022/01/27 10:23:09;;;;;;;;;;;;;;;9.04;100.00;99862.16;5074419;28;19920;-76
2022/01/27 10:25:51;;;;;;;;;;;;;;;9.06;100.00;99882.06;5074682;28;19927;-76
2022/01/27 10:28:35;;;;;;;;;;;;;;;8.64;100.00;99887.50;5071957;28;19927;-76
2022/01/27 10:31:06;;;;;;;;;;;;;;;8.64;100.00;99893.06;5074533;28;20370;-76
2022/01/27 10:33:41;;;;;;;;;;;;;;;8.81;100.00;99897.94;5074271;28;20359;-76
2022/01/27 10:36:21;;;;;;;;;;;;;;;8.98;100.00;99905.53;5073261;28;20433;-76
2022/01/27 10:38:52;;;;;;;;;;;;;;;8.87;100.00;99918.66;5074318;28;19966;-76
2022/01/27 10:41:21;;;;;;;;;;;;;;;8.78;100.00;99926.53;5073609;28;19924;-76
2022/01/27 10:43:48;;;;;;;;;;;;;;;8.98;100.00;99924.28;5074265;28;19927;-76
2022/01/27 10:46:29;;;;;;;;;;;;;;;8.86;100.00;99921.84;5073261;28;19959;-77
2022/01/27 10:49:07;;;;;;;;;;;;;;;9.00;100.00;99936.63;5074340;28;19962;-76
2022/01/27 10:51:44;;;;;;;;;;;;;;;9.08;100.00;99938.25;5074031;28;19921;-76
2022/01/27 10:55:32;;;;;;;;;;;;;;;;;;;;;
2022/01/27 10:58:00;;;;;;;;;;;;;;;8.92;100.00;99943.34;5028379;28;19925;-76
2022/01/27 11:00:31;;;;;;;;;;;;;;;8.85;100.00;99946.09;5031575;28;20023;-76
2022/01/27 11:03:02;;;;;;;;;;;;;;;9.04;100.00;99956.94;5030101;28;20059;-75
2022/01/27 11:05:31;;;;;;;;;;;;;;;9.04;100.00;99976.44;5016078;28;19922;-75
2022/01/27 11:07:59;;;;;;;;;;;;;;;8.99;100.00;99957.31;4995240;28;19929;-76
2022/01/27 11:10:26;;;;;;;;;;;;;;;8.89;100.00;99969.22;4995751;28;19925;-76
2022/01/27 11:12:56;;;;;;;;;;;;;;;8.87;100.00;99962.44;5001212;28;19932;-76
2022/01/27 11:15:23;;;;;;;;;;;;;;;8.85;100.00;99982.34;5014619;28;19921;-76
2022/01/27 11:17:51;;;;;;;;;;;;;;;8.86;100.00;99980.34;5031238;28;19928;-78
2022/01/27 11:21:03;;;;;;;;;;;;;;;8.76;100.00;99967.16;5030625;28;19971;-76
2022/01/27 11:26:16;;;;;;;;;;;;;;;9.12;100.00;99975.28;5014009;28;20011;-75
2022/01/27 11:28:44;;;;;;;;;;;;;;;8.95;100.00;99959.28;4995413;28;19944;-76
2022/01/27 11:31:11;;;;;;;;;;;;;;;9.01;100.00;99991.16;5023802;28;19920;-76
2022/01/27 11:33:42;;;;;;;;;;;;;;;9.15;100.00;99984.84;5053747;28;19963;-76
2022/01/27 11:36:11;;;;;;;;;;;;;;;8.87;100.00;99979.97;5053600;28;20019;-76
2022/01/27 11:38:39;;;;;;;;;;;;;;;8.89;100.00;99979.56;5053802;28;20375;-76
2022/01/27 11:41:06;;;;;;;;;;;;;;;8.83;100.00;99976.34;5052516;28;20409;-76
2022/01/27 11:43:33;;;;;;;;;;;;;;;8.94;100.00;99995.91;5053291;28;19935;-76
2022/01/27 11:46:15;;;;;;;;;;;;;;;9.00;100.00;100011.88;5052440;28;19925;-76
2022/01/27 11:48:42;;;;;;;;;;;;;;;8.92;100.00;100028.97;5052519;28;19928;-76
2022/01/27 11:51:12;;;;;;;;;;;;;;;8.79;100.00;100011.75;5036127;28;20020;-76
2022/01/27 11:53:42;;;;;;;;;;;;;;;8.79;100.00;100030.47;5052490;28;20422;-76
2022/01/27 11:56:31;;;;;;;;;;;;;;;9.18;100.00;100040.66;5035655;28;20264;-76
2022/01/27 11:59:02;;;;;;;;;;;;;;;9.12;100.00;100044.19;5053594;28;19921;-76
2022/01/27 12:01:34;;;;;;;;;;;;;;;9.18;100.00;100047.44;5053713;28;19927;-76
2022/01/27 12:04:07;;;;;;;;;;;;;;;9.14;100.00;100044.59;5105113;28;19921;-76
2022/01/27 12:06:34;;;;;;;;;;;;;;;9.03;100.00;100033.41;5073439;28;19920;-76
2022/01/27 12:09:19;;;;;;;;;;;;;;;9.13;100.00;100060.53;5073642;28;20018;-76
2022/01/27 12:11:53;;;;;;;;;;;;;;;8.92;100.00;100046.47;5072311;28;19957;-76
2022/01/27 12:14:26;;;;;;;;;;;;;;;9.06;100.00;100051.31;5073597;28;19927;-76
2022/01/27 12:17:08;;;;;;;;;;;;;;;9.01;100.00;100063.66;5072476;28;20340;-76
2022/01/27 12:19:54;;;;;;;;;;;;;;;9.06;100.00;100070.84;5072002;28;19974;-76
2022/01/27 12:22:27;;;;;;;;;;;;;;;9.10;100.00;100066.09;5073412;28;20359;-76
2022/01/27 12:25:01;;;;;;;;;;;;;;;8.85;100.00;100026.13;5117098;28;19926;-76
2022/01/27 12:27:30;;;;;;;;;;;;;;;8.90;100.00;100046.09;5093754;28;19967;-76
2022/01/27 12:30:14;;;;;;;;;;;;;;;9.04;100.00;100051.72;5092434;28;19920;-76
2022/01/27 12:32:41;;;;;;;;;;;;;;;8.90;100.00;100050.84;5093661;28;20414;-76
2022/01/27 12:35:10;;;;;;;;;;;;;;;8.78;100.00;100043.59;5093401;28;19941;-76
2022/01/27 12:37:38;;;;;;;;;;;;;;;8.90;100.00;100046.09;5093664;28;19920;-76
2022/01/27 12:40:17;;;;;;;;;;;;;;;8.78;100.00;100046.38;5093423;28;19927;-76
2022/01/27 12:42:58;;;;;;;;;;;;;;;8.83;100.00;100034.09;5092815;28;19927;-76
2022/01/27 12:45:28;;;;;;;;;;;;;;;8.87;100.00;100044.06;5093040;28;19926;-76
2022/01/27 12:48:03;;;;;;;;;;;;;;;8.76;100.00;100050.75;5093006;28;19920;-77
2022/01/27 12:50:31;;;;;;;;;;;;;;;8.84;100.00;100064.34;5092789;28;19924;-77
2022/01/27 12:53:07;;;;;;;;;;;;;;;8.81;100.00;100051.19;5091420;28;19942;-76
2022/01/27 12:55:42;;;;;;;;;;;;;;;8.84;100.00;100089.44;5093568;28;19927;-76
2022/01/27 12:58:11;;;;;;;;;;;;;;;8.85;100.00;100063.16;5097044;28;19926;-77
2022/01/27 13:00:39;;;;;;;;;;;;;;;8.99;100.00;100063.25;5096994;28;19920;-76
2022/01/27 13:03:09;;;;;;;;;;;;;;;9.24;100.00;100070.97;5079142;28;19927;-77
2022/01/27 13:05:38;;;;;;;;;;;;;;;9.24;100.00;100062.59;5077751;28;20405;-76
2022/01/27 13:08:10;;;;;;;;;;;;;;;9.28;100.00;100077.34;5075926;28;20295;-76
2022/01/27 13:10:38;;;;;;;;;;;;;;;9.24;100.00;100071.75;5083170;28;19920;-76
2022/01/27 13:13:15;;;;;;;;;;;;;;;9.38;100.00;100071.00;5095513;28;20011;-76
2022/01/27 13:15:43;;;;;;;;;;;;;;;9.36;100.00;100098.50;5096552;28;19920;-76
2022/01/27 13:18:23;;;;;;;;;;;;;;;9.29;100.00;100095.66;5094954;28;20018;-76
2022/01/27 13:20:55;;;;;;;;;;;;;;;9.10;100.00;100096.78;5096507;28;19989;-77
2022/01/27 13:23:28;;;;;;;;;;;;;;;9.04;100.00;100107.47;5087143;28;20415;-76
2022/01/27 13:25:59;;;;;;;;;;;;;;;9.12;100.00;100094.38;5076644;28;19943;-76
2022/01/27 13:28:28;;;;;;;;;;;;;;;9.44;100.00;100106.50;5109202;27;19920;-76
2022/01/27 13:31:00;;;;;;;;;;;;;;;9.38;100.00;100082.97;5072679;28;20351;-77
2022/01/27 13:33:28;;;;;;;;;;;;;;;9.36;100.00;100106.88;5095928;28;19919;-76
2022/01/27 13:35:58;;;;;;;;;;;;;;;9.38;100.00;100101.69;5094713;28;19920;-77
2022/01/27 13:38:37;;;;;;;;;;;;;;;9.49;100.00;100088.59;5096029;28;19920;-77
2022/01/27 13:41:25;;;;;;;;;;;;;;;9.45;100.00;100094.16;5095698;28;19923;-77
2022/01/27 13:44:12;;;;;;;;;;;;;;;9.33;100.00;100096.50;5087930;28;19920;-77
2022/01/27 13:46:52;;;;;;;;;;;;;;;9.18;100.00;100066.94;5075460;28;20371;-77
2022/01/27 13:49:27;;;;;;;;;;;;;;;8.98;100.00;100086.72;5057770;28;20321;-77
2022/01/27 13:51:55;;;;;;;;;;;;;;;8.92;100.00;100091.06;5056780;28;19920;-77
2022/01/27 13:54:34;;;;;;;;;;;;;;;8.98;100.00;100097.88;5076770;28;20394;-77